Main page
METAR-TAF:

METAR-TAF

Airports :

Limoges – Bellegarde Airport

Limoges, France

latitude: 45-52N, longitude: 001-11E, elevation: 396 m

Current weather observation

The report was made 27 minutes ago, at 20:00 UTC
Wind 10 kt from the North/Northeast
Temperature 1°C
Humidity 75%
Pressure 1033 hPa
Visibility 10 km or more
Few clouds at a height of 3000 ft

METAR: LFBL 212000Z AUTO 03010KT 9999 FEW030 01/M03 Q1033 NOSIG

Time: 21:27 (20:27 UTC)

Forecast

The report was made 3 hours and 27 minutes ago, at 17:00 UTC
Forecast valid from 21 at 18 UTC to 22 at 18 UTC
Wind 12 kt from the Northeast
Visibility 10 km or more
no clouds below 1500 m and no cumulonimbus
Temporary
from 21 at 19 UTC to 21 at 23 UTC
Broken clouds at a height of 1800 ft
Becoming
from 21 at 22 UTC to 21 at 24 UTC
Wind 8 kt from the Northeast
Probability 40% :
Temporary
from 22 at 04 UTC to 22 at 08 UTC
Broken clouds at a height of 800 ft

TAF: LFBL 211700Z 2118/2218 04012KT CAVOK TEMPO 2119/2123 BKN018 BECMG 2122/2124 04008KT PROB40 TEMPO 2204/2208 BKN008

Weather observations and forecasts of more than 4000 airports (METAR and TAF reports).

The available stations are represented by yellow and red dots on the map.

Hover mouse over dot to see the name of the station.

Then click to see weather observations and forecasts.

To change the map : click on the green buttons with a black cross to zoom in, on the green button with a dash to zoom out, or on the green arrows for adjacent maps.


METAR-TAF: